sensor_id;sensor_type;location;lat;lon;timestamp;temperature;humidity
73322;DHT22;61549;37.044;22.128;2022-12-16T00:01:17;18.90;68.00
73322;DHT22;61549;37.044;22.128;2022-12-16T00:03:48;18.90;68.40
73322;DHT22;61549;37.044;22.128;2022-12-16T00:06:14;18.90;68.50
73322;DHT22;61549;37.044;22.128;2022-12-16T00:08:40;18.90;68.50
73322;DHT22;61549;37.044;22.128;2022-12-16T00:11:07;18.90;68.60
73322;DHT22;61549;37.044;22.128;2022-12-16T00:13:34;18.80;68.60
73322;DHT22;61549;37.044;22.128;2022-12-16T00:16:10;18.80;68.80
73322;DHT22;61549;37.044;22.128;2022-12-16T00:18:42;18.70;69.00
73322;DHT22;61549;37.044;22.128;2022-12-16T00:21:08;18.60;69.40
73322;DHT22;61549;37.044;22.128;2022-12-16T00:23:35;18.60;70.00
73322;DHT22;61549;37.044;22.128;2022-12-16T00:26:04;18.70;70.30
73322;DHT22;61549;37.044;22.128;2022-12-16T00:28:30;18.70;70.10
73322;DHT22;61549;37.044;22.128;2022-12-16T00:30:57;18.70;70.00
73322;DHT22;61549;37.044;22.128;2022-12-16T00:33:25;18.70;69.70
73322;DHT22;61549;37.044;22.128;2022-12-16T00:35:52;18.80;69.40
73322;DHT22;61549;37.044;22.128;2022-12-16T00:38:19;18.80;69.20
73322;DHT22;61549;37.044;22.128;2022-12-16T00:40:46;18.70;69.30
73322;DHT22;61549;37.044;22.128;2022-12-16T00:43:12;18.80;69.30
73322;DHT22;61549;37.044;22.128;2022-12-16T00:45:38;18.80;69.40
73322;DHT22;61549;37.044;22.128;2022-12-16T00:48:05;18.80;69.50
73322;DHT22;61549;37.044;22.128;2022-12-16T00:50:31;18.80;69.40
73322;DHT22;61549;37.044;22.128;2022-12-16T00:52:57;18.70;69.30
73322;DHT22;61549;37.044;22.128;2022-12-16T00:55:23;18.80;69.00
73322;DHT22;61549;37.044;22.128;2022-12-16T01:01:25;18.80;69.00
73322;DHT22;61549;37.044;22.128;2022-12-16T01:03:51;18.70;69.10
73322;DHT22;61549;37.044;22.128;2022-12-16T01:06:20;18.60;69.60
73322;DHT22;61549;37.044;22.128;2022-12-16T01:08:46;18.60;70.30
73322;DHT22;61549;37.044;22.128;2022-12-16T01:11:20;18.60;70.20
73322;DHT22;61549;37.044;22.128;2022-12-16T01:13:49;18.60;69.90
73322;DHT22;61549;37.044;22.128;2022-12-16T01:16:17;18.60;70.10
73322;DHT22;61549;37.044;22.128;2022-12-16T01:18:52;18.50;70.20
73322;DHT22;61549;37.044;22.128;2022-12-16T01:21:19;18.60;70.10
73322;DHT22;61549;37.044;22.128;2022-12-16T01:23:46;18.40;70.50
73322;DHT22;61549;37.044;22.128;2022-12-16T01:26:17;18.50;70.50
73322;DHT22;61549;37.044;22.128;2022-12-16T01:28:44;18.50;70.30
73322;DHT22;61549;37.044;22.128;2022-12-16T01:31:14;18.50;70.70
73322;DHT22;61549;37.044;22.128;2022-12-16T01:33:40;18.50;70.50
73322;DHT22;61549;37.044;22.128;2022-12-16T01:36:07;18.50;70.20
73322;DHT22;61549;37.044;22.128;2022-12-16T01:38:34;18.50;70.20
73322;DHT22;61549;37.044;22.128;2022-12-16T01:41:00;18.50;69.90
73322;DHT22;61549;37.044;22.128;2022-12-16T01:43:34;18.50;70.20
73322;DHT22;61549;37.044;22.128;2022-12-16T01:49:05;18.40;71.20
73322;DHT22;61549;37.044;22.128;2022-12-16T01:51:42;18.50;71.10
73322;DHT22;61549;37.044;22.128;2022-12-16T01:54:24;18.50;70.30
73322;DHT22;61549;37.044;22.128;2022-12-16T01:56:57;18.60;70.20
73322;DHT22;61549;37.044;22.128;2022-12-16T01:59:27;18.50;69.90
73322;DHT22;61549;37.044;22.128;2022-12-16T02:01:55;18.60;69.70
73322;DHT22;61549;37.044;22.128;2022-12-16T02:04:22;18.60;69.10
73322;DHT22;61549;37.044;22.128;2022-12-16T02:06:48;18.60;69.10
73322;DHT22;61549;37.044;22.128;2022-12-16T02:09:26;18.50;68.90
73322;DHT22;61549;37.044;22.128;2022-12-16T02:12:11;18.50;69.00
73322;DHT22;61549;37.044;22.128;2022-12-16T02:26:17;18.30;70.70
73322;DHT22;61549;37.044;22.128;2022-12-16T02:31:29;18.30;72.10
73322;DHT22;61549;37.044;22.128;2022-12-16T02:39:49;18.40;72.00
73322;DHT22;61549;37.044;22.128;2022-12-16T02:42:28;18.40;72.30
73322;DHT22;61549;37.044;22.128;2022-12-16T02:45:07;18.30;72.90
73322;DHT22;61549;37.044;22.128;2022-12-16T02:47:35;18.40;73.20
73322;DHT22;61549;37.044;22.128;2022-12-16T02:50:01;18.40;73.10
73322;DHT22;61549;37.044;22.128;2022-12-16T02:52:32;18.50;73.00
73322;DHT22;61549;37.044;22.128;2022-12-16T02:55:03;18.50;72.60
73322;DHT22;61549;37.044;22.128;2022-12-16T03:00:23;18.50;71.10
73322;DHT22;61549;37.044;22.128;2022-12-16T03:03:16;18.50;70.90
73322;DHT22;61549;37.044;22.128;2022-12-16T03:05:47;18.50;70.80
73322;DHT22;61549;37.044;22.128;2022-12-16T03:08:25;18.40;71.00
73322;DHT22;61549;37.044;22.128;2022-12-16T03:10:57;18.40;70.90
73322;DHT22;61549;37.044;22.128;2022-12-16T03:13:28;18.40;71.00
73322;DHT22;61549;37.044;22.128;2022-12-16T03:16:06;18.30;71.50
73322;DHT22;61549;37.044;22.128;2022-12-16T03:18:33;18.30;72.10
73322;DHT22;61549;37.044;22.128;2022-12-16T03:21:04;18.20;72.30
73322;DHT22;61549;37.044;22.128;2022-12-16T03:23:45;18.30;72.30
73322;DHT22;61549;37.044;22.128;2022-12-16T03:26:34;18.30;72.30
73322;DHT22;61549;37.044;22.128;2022-12-16T03:31:59;18.20;72.00
73322;DHT22;61549;37.044;22.128;2022-12-16T03:37:06;18.20;71.80
73322;DHT22;61549;37.044;22.128;2022-12-16T03:39:34;18.20;72.40
73322;DHT22;61549;37.044;22.128;2022-12-16T03:42:02;18.20;72.70
73322;DHT22;61549;37.044;22.128;2022-12-16T03:44:29;18.30;72.80
73322;DHT22;61549;37.044;22.128;2022-12-16T03:46:54;18.30;72.50
73322;DHT22;61549;37.044;22.128;2022-12-16T03:49:21;18.30;71.50
73322;DHT22;61549;37.044;22.128;2022-12-16T03:51:48;18.30;71.50
73322;DHT22;61549;37.044;22.128;2022-12-16T03:54:14;18.30;71.70
73322;DHT22;61549;37.044;22.128;2022-12-16T03:56:40;18.20;72.40
73322;DHT22;61549;37.044;22.128;2022-12-16T03:59:05;18.20;71.90
73322;DHT22;61549;37.044;22.128;2022-12-16T04:01:31;18.20;72.00
73322;DHT22;61549;37.044;22.128;2022-12-16T04:03:57;18.20;72.40
73322;DHT22;61549;37.044;22.128;2022-12-16T04:06:23;18.20;72.00
73322;DHT22;61549;37.044;22.128;2022-12-16T04:08:49;18.20;72.20
73322;DHT22;61549;37.044;22.128;2022-12-16T04:11:15;18.10;72.30
73322;DHT22;61549;37.044;22.128;2022-12-16T04:13:59;18.20;72.50
73322;DHT22;61549;37.044;22.128;2022-12-16T04:16:43;18.10;71.90
73322;DHT22;61549;37.044;22.128;2022-12-16T04:19:30;18.10;71.80
73322;DHT22;61549;37.044;22.128;2022-12-16T04:22:22;18.10;72.20
73322;DHT22;61549;37.044;22.128;2022-12-16T04:25:14;18.00;72.80
73322;DHT22;61549;37.044;22.128;2022-12-16T04:27:41;18.00;72.60
73322;DHT22;61549;37.044;22.128;2022-12-16T04:30:15;18.00;72.20
73322;DHT22;61549;37.044;22.128;2022-12-16T04:33:01;18.10;71.70
73322;DHT22;61549;37.044;22.128;2022-12-16T04:35:46;18.10;71.20
73322;DHT22;61549;37.044;22.128;2022-12-16T04:38:31;18.10;71.20
73322;DHT22;61549;37.044;22.128;2022-12-16T04:41:15;18.10;71.20
73322;DHT22;61549;37.044;22.128;2022-12-16T04:44:00;18.10;71.00
73322;DHT22;61549;37.044;22.128;2022-12-16T04:46:44;18.00;71.00
73322;DHT22;61549;37.044;22.128;2022-12-16T04:49:29;18.00;71.40
73322;DHT22;61549;37.044;22.128;2022-12-16T04:52:14;18.00;71.50
73322;DHT22;61549;37.044;22.128;2022-12-16T04:54:58;18.00;71.60
73322;DHT22;61549;37.044;22.128;2022-12-16T04:57:50;17.90;71.70
73322;DHT22;61549;37.044;22.128;2022-12-16T05:00:35;18.00;71.90
73322;DHT22;61549;37.044;22.128;2022-12-16T05:03:19;18.00;72.30
73322;DHT22;61549;37.044;22.128;2022-12-16T05:06:03;17.90;72.90
73322;DHT22;61549;37.044;22.128;2022-12-16T05:08:48;17.90;73.00
73322;DHT22;61549;37.044;22.128;2022-12-16T05:11:40;17.80;73.40
73322;DHT22;61549;37.044;22.128;2022-12-16T05:14:24;17.90;73.00
73322;DHT22;61549;37.044;22.128;2022-12-16T05:17:08;17.90;73.30
73322;DHT22;61549;37.044;22.128;2022-12-16T05:19:53;17.90;74.20
73322;DHT22;61549;37.044;22.128;2022-12-16T05:22:37;17.90;73.80
73322;DHT22;61549;37.044;22.128;2022-12-16T05:25:21;18.00;73.90
73322;DHT22;61549;37.044;22.128;2022-12-16T05:28:06;18.00;73.80
73322;DHT22;61549;37.044;22.128;2022-12-16T05:31:10;18.00;73.70
73322;DHT22;61549;37.044;22.128;2022-12-16T05:33:54;18.00;73.20
73322;DHT22;61549;37.044;22.128;2022-12-16T05:36:38;18.00;73.30
73322;DHT22;61549;37.044;22.128;2022-12-16T05:39:22;18.00;73.70
73322;DHT22;61549;37.044;22.128;2022-12-16T05:42:07;18.00;73.90
73322;DHT22;61549;37.044;22.128;2022-12-16T05:44:51;18.00;74.00
73322;DHT22;61549;37.044;22.128;2022-12-16T05:47:36;18.10;74.30
73322;DHT22;61549;37.044;22.128;2022-12-16T05:50:20;18.10;74.20
73322;DHT22;61549;37.044;22.128;2022-12-16T05:53:04;18.10;74.00
73322;DHT22;61549;37.044;22.128;2022-12-16T05:55:48;18.10;73.80
73322;DHT22;61549;37.044;22.128;2022-12-16T05:58:46;18.10;74.10
73322;DHT22;61549;37.044;22.128;2022-12-16T06:01:30;18.20;74.30
73322;DHT22;61549;37.044;22.128;2022-12-16T06:04:14;18.10;74.40
73322;DHT22;61549;37.044;22.128;2022-12-16T06:06:59;18.20;74.50
73322;DHT22;61549;37.044;22.128;2022-12-16T06:09:44;18.20;74.50
73322;DHT22;61549;37.044;22.128;2022-12-16T06:12:28;18.20;74.90
73322;DHT22;61549;37.044;22.128;2022-12-16T06:15:12;18.20;75.00
73322;DHT22;61549;37.044;22.128;2022-12-16T06:17:56;18.20;75.50
73322;DHT22;61549;37.044;22.128;2022-12-16T06:20:40;18.20;75.60
73322;DHT22;61549;37.044;22.128;2022-12-16T06:23:25;18.20;75.40
73322;DHT22;61549;37.044;22.128;2022-12-16T06:26:09;18.20;75.00
73322;DHT22;61549;37.044;22.128;2022-12-16T06:29:04;18.20;75.00
73322;DHT22;61549;37.044;22.128;2022-12-16T06:31:48;18.20;75.20
73322;DHT22;61549;37.044;22.128;2022-12-16T06:34:32;18.20;75.40
73322;DHT22;61549;37.044;22.128;2022-12-16T06:37:16;18.20;75.60
73322;DHT22;61549;37.044;22.128;2022-12-16T06:40:01;18.30;75.90
73322;DHT22;61549;37.044;22.128;2022-12-16T06:42:45;18.30;75.80
73322;DHT22;61549;37.044;22.128;2022-12-16T06:45:29;18.30;75.60
73322;DHT22;61549;37.044;22.128;2022-12-16T06:48:14;18.40;75.50
73322;DHT22;61549;37.044;22.128;2022-12-16T06:50:58;18.40;75.30
73322;DHT22;61549;37.044;22.128;2022-12-16T06:53:42;18.50;75.40
73322;DHT22;61549;37.044;22.128;2022-12-16T06:56:26;18.60;75.50
73322;DHT22;61549;37.044;22.128;2022-12-16T06:59:10;18.60;75.80
73322;DHT22;61549;37.044;22.128;2022-12-16T07:01:54;18.70;76.20
73322;DHT22;61549;37.044;22.128;2022-12-16T07:04:39;18.70;76.20
73322;DHT22;61549;37.044;22.128;2022-12-16T07:07:23;18.80;76.40
73322;DHT22;61549;37.044;22.128;2022-12-16T07:10:07;18.80;76.60
73322;DHT22;61549;37.044;22.128;2022-12-16T07:12:55;18.90;76.70
73322;DHT22;61549;37.044;22.128;2022-12-16T07:15:39;19.00;77.10
73322;DHT22;61549;37.044;22.128;2022-12-16T07:21:54;19.60;77.90
73322;DHT22;61549;37.044;22.128;2022-12-16T07:24:39;19.90;77.90
73322;DHT22;61549;37.044;22.128;2022-12-16T07:27:23;20.20;77.80
73322;DHT22;61549;37.044;22.128;2022-12-16T07:30:08;20.50;77.20
73322;DHT22;61549;37.044;22.128;2022-12-16T07:32:52;20.80;75.70
73322;DHT22;61549;37.044;22.128;2022-12-16T07:35:36;21.00;74.50
73322;DHT22;61549;37.044;22.128;2022-12-16T07:38:20;21.20;73.20
73322;DHT22;61549;37.044;22.128;2022-12-16T07:41:05;21.40;72.90
73322;DHT22;61549;37.044;22.128;2022-12-16T07:43:50;21.70;72.70
73322;DHT22;61549;37.044;22.128;2022-12-16T07:46:35;21.80;71.80
73322;DHT22;61549;37.044;22.128;2022-12-16T07:49:19;22.10;71.10
73322;DHT22;61549;37.044;22.128;2022-12-16T07:52:03;22.30;68.40
73322;DHT22;61549;37.044;22.128;2022-12-16T07:54:48;22.50;68.90
73322;DHT22;61549;37.044;22.128;2022-12-16T07:57:32;22.60;67.90
73322;DHT22;61549;37.044;22.128;2022-12-16T08:00:16;22.70;67.00
73322;DHT22;61549;37.044;22.128;2022-12-16T08:03:00;22.80;67.00
73322;DHT22;61549;37.044;22.128;2022-12-16T08:05:44;23.00;66.40
73322;DHT22;61549;37.044;22.128;2022-12-16T08:08:29;23.10;65.90
73322;DHT22;61549;37.044;22.128;2022-12-16T08:11:13;23.30;64.20
73322;DHT22;61549;37.044;22.128;2022-12-16T08:13:57;23.40;64.50
73322;DHT22;61549;37.044;22.128;2022-12-16T08:30:09;23.60;63.90
73322;DHT22;61549;37.044;22.128;2022-12-16T08:33:02;23.40;63.70
73322;DHT22;61549;37.044;22.128;2022-12-16T08:39:09;23.00;63.80
73322;DHT22;61549;37.044;22.128;2022-12-16T08:41:53;22.80;64.30
73322;DHT22;61549;37.044;22.128;2022-12-16T08:44:37;22.70;65.50
73322;DHT22;61549;37.044;22.128;2022-12-16T08:47:21;22.60;66.50
73322;DHT22;61549;37.044;22.128;2022-12-16T08:50:06;22.50;65.80
73322;DHT22;61549;37.044;22.128;2022-12-16T08:52:50;22.50;66.20
73322;DHT22;61549;37.044;22.128;2022-12-16T08:55:34;22.40;66.50
73322;DHT22;61549;37.044;22.128;2022-12-16T08:58:18;22.50;66.10
73322;DHT22;61549;37.044;22.128;2022-12-16T09:01:02;22.50;65.80
73322;DHT22;61549;37.044;22.128;2022-12-16T09:03:46;22.40;66.40
73322;DHT22;61549;37.044;22.128;2022-12-16T09:06:31;22.40;66.60
73322;DHT22;61549;37.044;22.128;2022-12-16T09:09:18;22.50;67.00
73322;DHT22;61549;37.044;22.128;2022-12-16T09:15:24;23.10;64.40
73322;DHT22;61549;37.044;22.128;2022-12-16T09:18:08;23.40;63.30
73322;DHT22;61549;37.044;22.128;2022-12-16T09:20:52;23.50;63.10
73322;DHT22;61549;37.044;22.128;2022-12-16T09:23:37;23.60;62.40
73322;DHT22;61549;37.044;22.128;2022-12-16T09:26:21;23.70;62.40
73322;DHT22;61549;37.044;22.128;2022-12-16T09:29:06;23.80;62.80
73322;DHT22;61549;37.044;22.128;2022-12-16T09:31:50;23.90;62.20
73322;DHT22;61549;37.044;22.128;2022-12-16T09:34:35;24.10;61.80
73322;DHT22;61549;37.044;22.128;2022-12-16T09:37:19;24.40;61.80
73322;DHT22;61549;37.044;22.128;2022-12-16T09:40:04;24.60;61.50
73322;DHT22;61549;37.044;22.128;2022-12-16T09:49:46;25.20;57.70
73322;DHT22;61549;37.044;22.128;2022-12-16T09:53:02;25.30;58.30
73322;DHT22;61549;37.044;22.128;2022-12-16T09:55:45;25.40;57.70
73322;DHT22;61549;37.044;22.128;2022-12-16T09:58:41;25.50;57.60
73322;DHT22;61549;37.044;22.128;2022-12-16T10:01:35;25.40;57.70
73322;DHT22;61549;37.044;22.128;2022-12-16T10:11:07;25.50;57.10
73322;DHT22;61549;37.044;22.128;2022-12-16T10:14:05;25.60;57.30
73322;DHT22;61549;37.044;22.128;2022-12-16T10:17:11;25.90;56.80
73322;DHT22;61549;37.044;22.128;2022-12-16T10:27:05;25.70;56.70
73322;DHT22;61549;37.044;22.128;2022-12-16T10:29:51;25.70;56.90
73322;DHT22;61549;37.044;22.128;2022-12-16T10:32:43;25.40;57.40
73322;DHT22;61549;37.044;22.128;2022-12-16T10:35:50;25.30;58.20
73322;DHT22;61549;37.044;22.128;2022-12-16T10:38:42;25.40;57.90
73322;DHT22;61549;37.044;22.128;2022-12-16T10:41:32;25.40;57.20
73322;DHT22;61549;37.044;22.128;2022-12-16T10:44:28;25.40;57.60
73322;DHT22;61549;37.044;22.128;2022-12-16T10:47:14;25.50;57.20
73322;DHT22;61549;37.044;22.128;2022-12-16T10:49:58;25.40;57.10
73322;DHT22;61549;37.044;22.128;2022-12-16T10:52:55;25.50;56.70
73322;DHT22;61549;37.044;22.128;2022-12-16T11:01:26;25.60;57.30
73322;DHT22;61549;37.044;22.128;2022-12-16T11:04:32;25.70;56.90
73322;DHT22;61549;37.044;22.128;2022-12-16T11:13:29;25.80;56.70
73322;DHT22;61549;37.044;22.128;2022-12-16T11:16:21;25.60;56.50
73322;DHT22;61549;37.044;22.128;2022-12-16T11:25:17;25.70;56.30
73322;DHT22;61549;37.044;22.128;2022-12-16T11:28:13;25.70;57.00
73322;DHT22;61549;37.044;22.128;2022-12-16T11:31:02;25.70;57.20
73322;DHT22;61549;37.044;22.128;2022-12-16T11:33:51;25.70;57.60
73322;DHT22;61549;37.044;22.128;2022-12-16T11:36:37;25.90;56.50
73322;DHT22;61549;37.044;22.128;2022-12-16T11:39:23;25.90;57.00
73322;DHT22;61549;37.044;22.128;2022-12-16T11:42:24;25.90;57.60
73322;DHT22;61549;37.044;22.128;2022-12-16T11:45:16;25.80;56.80
73322;DHT22;61549;37.044;22.128;2022-12-16T11:50:56;25.90;57.00
73322;DHT22;61549;37.044;22.128;2022-12-16T11:54:22;26.00;57.20
73322;DHT22;61549;37.044;22.128;2022-12-16T11:57:56;26.00;56.60
73322;DHT22;61549;37.044;22.128;2022-12-16T12:00:52;26.00;56.30
73322;DHT22;61549;37.044;22.128;2022-12-16T12:03:45;25.70;57.20
73322;DHT22;61549;37.044;22.128;2022-12-16T12:09:26;25.70;57.60
73322;DHT22;61549;37.044;22.128;2022-12-16T12:12:23;25.80;57.30
73322;DHT22;61549;37.044;22.128;2022-12-16T12:18:13;26.00;56.70
73322;DHT22;61549;37.044;22.128;2022-12-16T12:24:05;26.00;57.00
73322;DHT22;61549;37.044;22.128;2022-12-16T12:27:08;26.00;56.90
73322;DHT22;61549;37.044;22.128;2022-12-16T12:30:09;26.00;56.60
73322;DHT22;61549;37.044;22.128;2022-12-16T12:39:22;25.80;57.50
73322;DHT22;61549;37.044;22.128;2022-12-16T12:42:22;25.80;57.80
73322;DHT22;61549;37.044;22.128;2022-12-16T12:51:30;25.80;57.00
73322;DHT22;61549;37.044;22.128;2022-12-16T12:57:36;25.80;57.10
73322;DHT22;61549;37.044;22.128;2022-12-16T13:00:24;25.70;57.80
73322;DHT22;61549;37.044;22.128;2022-12-16T13:03:38;25.70;57.90
73322;DHT22;61549;37.044;22.128;2022-12-16T13:06:26;25.60;58.50
73322;DHT22;61549;37.044;22.128;2022-12-16T13:09:33;25.50;58.70
73322;DHT22;61549;37.044;22.128;2022-12-16T13:18:25;25.30;59.10
73322;DHT22;61549;37.044;22.128;2022-12-16T13:24:38;25.30;58.00
73322;DHT22;61549;37.044;22.128;2022-12-16T13:27:25;25.10;57.80
73322;DHT22;61549;37.044;22.128;2022-12-16T13:33:19;25.00;58.30
73322;DHT22;61549;37.044;22.128;2022-12-16T13:36:05;25.00;58.90
73322;DHT22;61549;37.044;22.128;2022-12-16T13:38:50;25.00;58.70
73322;DHT22;61549;37.044;22.128;2022-12-16T13:50:41;24.80;58.30
73322;DHT22;61549;37.044;22.128;2022-12-16T13:53:48;24.70;58.80
73322;DHT22;61549;37.044;22.128;2022-12-16T13:56:41;24.60;59.10
73322;DHT22;61549;37.044;22.128;2022-12-16T13:59:30;24.50;60.00
73322;DHT22;61549;37.044;22.128;2022-12-16T14:02:40;24.50;59.70
73322;DHT22;61549;37.044;22.128;2022-12-16T14:05:32;24.60;60.00
73322;DHT22;61549;37.044;22.128;2022-12-16T14:08:21;24.60;60.40
73322;DHT22;61549;37.044;22.128;2022-12-16T14:11:35;24.60;60.30
73322;DHT22;61549;37.044;22.128;2022-12-16T14:14:32;24.60;60.00
73322;DHT22;61549;37.044;22.128;2022-12-16T14:18:03;24.50;60.30
73322;DHT22;61549;37.044;22.128;2022-12-16T14:21:00;24.50;60.10
73322;DHT22;61549;37.044;22.128;2022-12-16T14:23:50;24.40;60.60
73322;DHT22;61549;37.044;22.128;2022-12-16T14:26:37;24.40;60.50
73322;DHT22;61549;37.044;22.128;2022-12-16T14:29:25;24.40;60.30
73322;DHT22;61549;37.044;22.128;2022-12-16T14:35:27;24.40;60.90
73322;DHT22;61549;37.044;22.128;2022-12-16T14:41:13;24.40;60.40
73322;DHT22;61549;37.044;22.128;2022-12-16T14:43:58;24.30;60.90
73322;DHT22;61549;37.044;22.128;2022-12-16T14:46:48;24.20;61.10
73322;DHT22;61549;37.044;22.128;2022-12-16T14:49:35;24.20;61.50
73322;DHT22;61549;37.044;22.128;2022-12-16T14:52:25;24.20;62.50
73322;DHT22;61549;37.044;22.128;2022-12-16T14:55:13;24.10;62.40
73322;DHT22;61549;37.044;22.128;2022-12-16T14:58:24;24.00;62.50
73322;DHT22;61549;37.044;22.128;2022-12-16T15:01:20;23.80;63.00
73322;DHT22;61549;37.044;22.128;2022-12-16T15:04:09;23.60;63.60
73322;DHT22;61549;37.044;22.128;2022-12-16T15:06:56;23.40;64.00
73322;DHT22;61549;37.044;22.128;2022-12-16T15:10:01;23.30;64.60
73322;DHT22;61549;37.044;22.128;2022-12-16T15:13:27;23.20;64.70
73322;DHT22;61549;37.044;22.128;2022-12-16T15:16:17;23.10;64.90
73322;DHT22;61549;37.044;22.128;2022-12-16T15:19:04;22.90;65.10
73322;DHT22;61549;37.044;22.128;2022-12-16T15:21:48;22.70;65.90
73322;DHT22;61549;37.044;22.128;2022-12-16T15:24:36;22.60;66.50
73322;DHT22;61549;37.044;22.128;2022-12-16T15:27:25;22.50;66.60
73322;DHT22;61549;37.044;22.128;2022-12-16T15:33:21;22.40;66.80
73322;DHT22;61549;37.044;22.128;2022-12-16T15:39:09;22.30;67.40
73322;DHT22;61549;37.044;22.128;2022-12-16T15:41:53;22.10;67.10
73322;DHT22;61549;37.044;22.128;2022-12-16T15:44:46;22.00;67.30
73322;DHT22;61549;37.044;22.128;2022-12-16T15:47:34;22.00;67.40
73322;DHT22;61549;37.044;22.128;2022-12-16T15:50:26;21.90;67.20
73322;DHT22;61549;37.044;22.128;2022-12-16T15:53:35;21.90;67.30
73322;DHT22;61549;37.044;22.128;2022-12-16T15:56:32;21.90;67.10
73322;DHT22;61549;37.044;22.128;2022-12-16T15:59:29;21.80;67.20
73322;DHT22;61549;37.044;22.128;2022-12-16T16:02:23;21.70;67.10
73322;DHT22;61549;37.044;22.128;2022-12-16T16:05:13;21.70;67.10
73322;DHT22;61549;37.044;22.128;2022-12-16T16:07:58;21.70;66.90
73322;DHT22;61549;37.044;22.128;2022-12-16T16:10:43;21.70;66.70
73322;DHT22;61549;37.044;22.128;2022-12-16T16:13:28;21.60;66.40
73322;DHT22;61549;37.044;22.128;2022-12-16T16:16:13;21.60;66.10
73322;DHT22;61549;37.044;22.128;2022-12-16T16:18:58;21.60;66.10
73322;DHT22;61549;37.044;22.128;2022-12-16T16:21:42;21.50;66.10
73322;DHT22;61549;37.044;22.128;2022-12-16T16:24:26;21.50;65.80
73322;DHT22;61549;37.044;22.128;2022-12-16T16:27:12;21.50;65.80
73322;DHT22;61549;37.044;22.128;2022-12-16T16:29:58;21.50;65.50
73322;DHT22;61549;37.044;22.128;2022-12-16T16:32:44;21.50;65.30
73322;DHT22;61549;37.044;22.128;2022-12-16T16:35:34;21.40;65.40
73322;DHT22;61549;37.044;22.128;2022-12-16T16:38:19;21.40;64.70
73322;DHT22;61549;37.044;22.128;2022-12-16T16:41:03;21.40;64.80
73322;DHT22;61549;37.044;22.128;2022-12-16T16:43:47;21.40;64.70
73322;DHT22;61549;37.044;22.128;2022-12-16T16:49:21;21.40;64.40
73322;DHT22;61549;37.044;22.128;2022-12-16T16:52:11;21.40;64.40
73322;DHT22;61549;37.044;22.128;2022-12-16T16:54:56;21.40;64.30
73322;DHT22;61549;37.044;22.128;2022-12-16T16:57:42;21.40;64.30
73322;DHT22;61549;37.044;22.128;2022-12-16T17:00:26;21.40;64.30
73322;DHT22;61549;37.044;22.128;2022-12-16T17:03:10;21.30;64.30
73322;DHT22;61549;37.044;22.128;2022-12-16T17:05:54;21.30;64.20
73322;DHT22;61549;37.044;22.128;2022-12-16T17:08:39;21.30;64.10
73322;DHT22;61549;37.044;22.128;2022-12-16T17:11:23;21.30;63.90
73322;DHT22;61549;37.044;22.128;2022-12-16T17:14:15;21.30;64.00
73322;DHT22;61549;37.044;22.128;2022-12-16T17:17:00;21.30;64.10
73322;DHT22;61549;37.044;22.128;2022-12-16T17:19:44;21.20;64.30
73322;DHT22;61549;37.044;22.128;2022-12-16T17:22:29;21.20;64.50
73322;DHT22;61549;37.044;22.128;2022-12-16T17:25:14;21.10;64.70
73322;DHT22;61549;37.044;22.128;2022-12-16T17:27:59;21.00;64.70
73322;DHT22;61549;37.044;22.128;2022-12-16T17:30:43;21.00;64.70
73322;DHT22;61549;37.044;22.128;2022-12-16T17:33:28;21.00;64.70
73322;DHT22;61549;37.044;22.128;2022-12-16T17:36:14;20.90;64.80
73322;DHT22;61549;37.044;22.128;2022-12-16T17:39:01;20.90;64.90
73322;DHT22;61549;37.044;22.128;2022-12-16T17:41:45;20.90;65.10
73322;DHT22;61549;37.044;22.128;2022-12-16T17:44:30;20.80;65.00
73322;DHT22;61549;37.044;22.128;2022-12-16T17:47:15;20.80;65.10
73322;DHT22;61549;37.044;22.128;2022-12-16T17:50:00;20.80;64.90
73322;DHT22;61549;37.044;22.128;2022-12-16T17:52:44;20.80;64.80
73322;DHT22;61549;37.044;22.128;2022-12-16T17:55:29;20.80;64.70
73322;DHT22;61549;37.044;22.128;2022-12-16T17:58:13;20.80;64.50
73322;DHT22;61549;37.044;22.128;2022-12-16T18:01:03;20.80;64.30
73322;DHT22;61549;37.044;22.128;2022-12-16T18:03:48;20.70;64.40
73322;DHT22;61549;37.044;22.128;2022-12-16T18:06:33;20.70;64.60
73322;DHT22;61549;37.044;22.128;2022-12-16T18:09:17;20.60;64.80
73322;DHT22;61549;37.044;22.128;2022-12-16T18:12:02;20.60;64.90
73322;DHT22;61549;37.044;22.128;2022-12-16T18:14:46;20.60;64.90
73322;DHT22;61549;37.044;22.128;2022-12-16T18:17:30;20.60;64.90
73322;DHT22;61549;37.044;22.128;2022-12-16T18:20:14;20.60;64.90
73322;DHT22;61549;37.044;22.128;2022-12-16T18:22:59;20.60;65.20
73322;DHT22;61549;37.044;22.128;2022-12-16T18:25:58;20.60;64.60
73322;DHT22;61549;37.044;22.128;2022-12-16T18:28:43;20.50;64.50
73322;DHT22;61549;37.044;22.128;2022-12-16T18:31:27;20.40;64.60
73322;DHT22;61549;37.044;22.128;2022-12-16T18:34:12;20.40;64.70
73322;DHT22;61549;37.044;22.128;2022-12-16T18:36:56;20.40;64.70
73322;DHT22;61549;37.044;22.128;2022-12-16T18:39:40;20.40;64.40
73322;DHT22;61549;37.044;22.128;2022-12-16T18:42:24;20.40;64.30
73322;DHT22;61549;37.044;22.128;2022-12-16T18:45:09;20.40;64.40
73322;DHT22;61549;37.044;22.128;2022-12-16T18:47:53;20.40;64.30
73322;DHT22;61549;37.044;22.128;2022-12-16T18:50:37;20.40;64.10
73322;DHT22;61549;37.044;22.128;2022-12-16T18:53:24;20.40;64.00
73322;DHT22;61549;37.044;22.128;2022-12-16T18:56:09;20.30;64.10
73322;DHT22;61549;37.044;22.128;2022-12-16T18:58:54;20.40;64.30
73322;DHT22;61549;37.044;22.128;2022-12-16T19:01:38;20.30;63.90
73322;DHT22;61549;37.044;22.128;2022-12-16T19:04:23;20.40;63.90
73322;DHT22;61549;37.044;22.128;2022-12-16T19:07:09;20.40;64.00
73322;DHT22;61549;37.044;22.128;2022-12-16T19:09:55;20.40;64.00
73322;DHT22;61549;37.044;22.128;2022-12-16T19:12:40;20.30;64.00
73322;DHT22;61549;37.044;22.128;2022-12-16T19:15:24;20.30;63.90
73322;DHT22;61549;37.044;22.128;2022-12-16T19:18:10;20.40;63.90
73322;DHT22;61549;37.044;22.128;2022-12-16T19:20:55;20.40;63.90
73322;DHT22;61549;37.044;22.128;2022-12-16T19:23:40;20.30;64.00
73322;DHT22;61549;37.044;22.128;2022-12-16T19:26:24;20.40;64.00
73322;DHT22;61549;37.044;22.128;2022-12-16T19:29:09;20.40;64.10
73322;DHT22;61549;37.044;22.128;2022-12-16T19:31:53;20.40;64.00
73322;DHT22;61549;37.044;22.128;2022-12-16T19:34:42;20.30;64.10
73322;DHT22;61549;37.044;22.128;2022-12-16T19:37:26;20.30;64.20
73322;DHT22;61549;37.044;22.128;2022-12-16T19:40:11;20.30;64.30